sensor_id;sensor_type;location;lat;lon;timestamp;P1;durP1;ratioP1;P2;durP2;ratioP2
17636;SDS011;8937;51.236;6.794;2023-04-24T00:01:51;0.70;;;0.70;;
17636;SDS011;8937;51.236;6.794;2023-04-24T00:10:13;0.93;;;0.93;;
17636;SDS011;8937;51.236;6.794;2023-04-24T00:18:35;0.80;;;0.80;;
17636;SDS011;8937;51.236;6.794;2023-04-24T00:26:57;0.80;;;0.80;;
17636;SDS011;8937;51.236;6.794;2023-04-24T00:35:19;0.97;;;0.90;;
17636;SDS011;8937;51.236;6.794;2023-04-24T00:43:41;0.80;;;0.80;;
17636;SDS011;8937;51.236;6.794;2023-04-24T00:52:03;0.97;;;0.97;;
17636;SDS011;8937;51.236;6.794;2023-04-24T01:00:27;1.10;;;1.10;;
17636;SDS011;8937;51.236;6.794;2023-04-24T01:08:50;0.90;;;0.90;;
17636;SDS011;8937;51.236;6.794;2023-04-24T01:17:12;0.93;;;0.93;;
17636;SDS011;8937;51.236;6.794;2023-04-24T01:25:34;1.43;;;1.33;;
17636;SDS011;8937;51.236;6.794;2023-04-24T01:33:56;2.50;;;1.97;;
17636;SDS011;8937;51.236;6.794;2023-04-24T01:42:19;2.73;;;2.40;;
17636;SDS011;8937;51.236;6.794;2023-04-24T01:50:41;2.20;;;2.10;;
17636;SDS011;8937;51.236;6.794;2023-04-24T01:59:03;2.50;;;2.30;;
17636;SDS011;8937;51.236;6.794;2023-04-24T02:07:25;2.90;;;2.70;;
17636;SDS011;8937;51.236;6.794;2023-04-24T02:15:47;3.20;;;2.90;;
17636;SDS011;8937;51.236;6.794;2023-04-24T02:24:09;3.17;;;2.97;;
17636;SDS011;8937;51.236;6.794;2023-04-24T02:32:31;3.70;;;3.00;;
17636;SDS011;8937;51.236;6.794;2023-04-24T02:40:54;4.57;;;2.87;;
17636;SDS011;8937;51.236;6.794;2023-04-24T02:49:16;6.97;;;3.47;;
17636;SDS011;8937;51.236;6.794;2023-04-24T02:57:38;5.30;;;3.60;;
17636;SDS011;8937;51.236;6.794;2023-04-24T03:06:00;3.57;;;3.07;;
17636;SDS011;8937;51.236;6.794;2023-04-24T03:14:21;3.23;;;2.93;;
17636;SDS011;8937;51.236;6.794;2023-04-24T03:22:44;5.00;;;3.70;;
17636;SDS011;8937;51.236;6.794;2023-04-24T03:31:05;5.03;;;3.10;;
17636;SDS011;8937;51.236;6.794;2023-04-24T03:39:28;3.17;;;2.97;;
17636;SDS011;8937;51.236;6.794;2023-04-24T03:47:50;6.03;;;2.90;;
17636;SDS011;8937;51.236;6.794;2023-04-24T03:56:13;6.70;;;3.50;;
17636;SDS011;8937;51.236;6.794;2023-04-24T04:04:34;5.73;;;3.67;;
17636;SDS011;8937;51.236;6.794;2023-04-24T04:12:57;4.03;;;3.30;;
17636;SDS011;8937;51.236;6.794;2023-04-24T04:21:18;4.03;;;3.40;;
17636;SDS011;8937;51.236;6.794;2023-04-24T04:29:41;4.40;;;3.40;;
17636;SDS011;8937;51.236;6.794;2023-04-24T04:38:02;3.90;;;3.50;;
17636;SDS011;8937;51.236;6.794;2023-04-24T04:46:26;3.67;;;3.30;;
17636;SDS011;8937;51.236;6.794;2023-04-24T04:54:47;4.20;;;3.07;;
17636;SDS011;8937;51.236;6.794;2023-04-24T05:03:10;3.40;;;3.10;;
17636;SDS011;8937;51.236;6.794;2023-04-24T05:11:31;3.33;;;3.03;;
17636;SDS011;8937;51.236;6.794;2023-04-24T05:19:54;3.57;;;3.07;;
17636;SDS011;8937;51.236;6.794;2023-04-24T05:28:15;3.17;;;2.97;;
17636;SDS011;8937;51.236;6.794;2023-04-24T05:36:38;2.93;;;2.67;;
17636;SDS011;8937;51.236;6.794;2023-04-24T05:44:59;2.63;;;2.43;;
17636;SDS011;8937;51.236;6.794;2023-04-24T05:53:22;2.47;;;2.30;;
17636;SDS011;8937;51.236;6.794;2023-04-24T06:01:43;3.00;;;2.70;;
17636;SDS011;8937;51.236;6.794;2023-04-24T06:10:07;3.60;;;3.00;;
